Time;durP1;ratioP1;P1;durP2;ratioP2;P2;SDS_P1;SDS_P2;PMS_P1;PMS_P2;Temp;Humidity;BMP_temperature;BMP_pressure;BME280_temperature;BME280_humidity;BME280_pressure;Samples;Min_cycle;Max_cycle;Signal;HPM_P1;HPM_P2
2023/07/06 00:01:40;;;;;;;6.72;5.57;;;13.20;99.90;;;;;;5073385;28;20142;-66
2023/07/06 00:04:06;;;;;;;8.88;5.50;;;13.20;99.90;;;;;;5057390;28;20428;-68
2023/07/06 00:06:33;;;;;;;8.15;5.85;;;13.10;99.90;;;;;;5076206;28;20048;-68
2023/07/06 00:09:00;;;;;;;8.77;5.75;;;13.10;99.90;;;;;;5060359;28;20139;-66
2023/07/06 00:11:33;;;;;;;7.07;5.25;;;13.10;99.90;;;;;;5076548;28;20051;-66
2023/07/06 00:13:59;;;;;;;9.23;6.00;;;13.00;99.90;;;;;;5076597;28;20252;-67
2023/07/06 00:16:26;;;;;;;7.60;4.95;;;13.00;99.90;;;;;;5076532;28;20396;-66
2023/07/06 00:18:54;;;;;;;8.25;5.60;;;13.00;99.90;;;;;;5059629;28;20048;-66
2023/07/06 00:21:21;;;;;;;6.30;5.28;;;13.00;99.90;;;;;;5076383;28;20044;-67
2023/07/06 00:23:49;;;;;;;6.05;4.90;;;12.90;99.90;;;;;;5076047;28;20040;-67
2023/07/06 00:26:20;;;;;;;8.60;5.50;;;12.90;99.90;;;;;;5059988;28;20434;-67
2023/07/06 00:28:49;;;;;;;8.13;4.53;;;12.80;99.90;;;;;;5094210;28;20101;-68
2023/07/06 00:31:21;;;;;;;8.88;5.70;;;12.80;99.90;;;;;;5060124;28;20106;-66
2023/07/06 00:33:52;;;;;;;6.85;5.20;;;12.70;99.90;;;;;;5059024;28;20052;-67
2023/07/06 00:36:19;;;;;;;7.82;5.20;;;12.70;99.90;;;;;;5055971;28;20052;-66
2023/07/06 00:38:46;;;;;;;8.23;5.97;;;12.60;99.90;;;;;;5039412;28;20102;-68
2023/07/06 00:41:13;;;;;;;8.43;5.32;;;12.70;99.90;;;;;;5039747;28;20255;-67
2023/07/06 00:43:52;;;;;;;7.82;5.47;;;12.60;99.90;;;;;;5055424;28;20102;-66
2023/07/06 00:46:20;;;;;;;7.50;5.40;;;12.60;99.90;;;;;;5056232;28;20051;-66
2023/07/06 00:48:49;;;;;;;7.63;5.90;;;12.60;99.90;;;;;;5055682;28;20040;-68
2023/07/06 00:51:20;;;;;;;8.32;5.75;;;12.50;99.90;;;;;;5056308;28;20052;-66
2023/07/06 00:53:53;;;;;;;8.10;5.70;;;12.60;99.90;;;;;;5039681;28;20059;-67
2023/07/06 00:56:23;;;;;;;8.88;5.75;;;12.60;99.90;;;;;;5073912;28;20342;-67
2023/07/06 00:58:53;;;;;;;7.57;5.88;;;12.50;99.90;;;;;;5073233;28;20074;-66
2023/07/06 01:01:22;;;;;;;7.97;5.55;;;12.50;99.90;;;;;;5055807;28;20056;-67
2023/07/06 01:03:53;;;;;;;8.48;6.07;;;12.50;99.90;;;;;;5038847;28;20048;-67
2023/07/06 01:06:23;;;;;;;;;;;12.40;99.90;;;;;;5039740;28;20079;-66
2023/07/06 01:08:52;;;;;;;7.53;6.47;;;12.40;99.90;;;;;;5055129;28;19926;-66
2023/07/06 01:11:20;;;;;;;8.32;5.20;;;12.40;99.90;;;;;;5039410;28;20055;-67
2023/07/06 01:13:51;;;;;;;9.35;6.47;;;12.30;99.90;;;;;;5055156;28;20037;-68
2023/07/06 01:16:30;;;;;;;9.48;7.05;;;12.40;99.90;;;;;;5054447;28;20049;-68
2023/07/06 01:19:22;;;;;;;7.53;5.88;;;12.40;99.90;;;;;;5055696;28;20411;-67
2023/07/06 01:22:24;;;;;;;7.95;6.15;;;12.40;99.90;;;;;;5038823;28;20453;-67
2023/07/06 01:25:06;;;;;;;12.43;6.80;;;12.30;99.90;;;;;;5035079;28;20045;-66
2023/07/06 01:27:36;;;;;;;10.55;6.75;;;12.40;99.90;;;;;;5039496;28;20036;-67
2023/07/06 01:30:09;;;;;;;8.93;6.43;;;12.30;99.90;;;;;;5043685;28;20071;-67
2023/07/06 01:32:41;;;;;;;12.00;7.20;;;12.30;99.90;;;;;;5024418;28;20101;-67
2023/07/06 01:35:15;;;;;;;10.70;6.82;;;12.30;99.90;;;;;;5064845;28;20055;-66
2023/07/06 01:37:43;;;;;;;9.50;6.72;;;12.30;99.90;;;;;;5074969;28;20101;-67
2023/07/06 01:40:11;;;;;;;11.18;7.00;;;12.30;99.90;;;;;;5058692;28;20056;-66
2023/07/06 01:42:42;;;;;;;8.65;6.13;;;12.30;99.90;;;;;;5058370;28;20064;-68
2023/07/06 01:45:16;;;;;;;10.32;6.65;;;12.30;99.90;;;;;;5039840;28;20052;-67
2023/07/06 01:47:49;;;;;;;10.48;6.57;;;12.30;99.90;;;;;;5054495;28;20040;-66
2023/07/06 01:50:22;;;;;;;11.25;7.20;;;12.30;99.90;;;;;;5054960;28;20044;-66
2023/07/06 01:53:09;;;;;;;10.35;6.50;;;12.40;99.90;;;;;;5072198;28;20067;-67
2023/07/06 01:55:53;;;;;;;11.98;7.22;;;12.40;99.90;;;;;;5034870;28;20075;-68
2023/07/06 01:58:32;;;;;;;8.57;6.78;;;12.40;99.90;;;;;;5017834;28;20480;-67
2023/07/06 02:01:04;;;;;;;11.93;6.57;;;12.50;99.90;;;;;;5018006;28;20056;-67
2023/07/06 02:03:31;;;;;;;11.75;7.15;;;12.50;99.90;;;;;;5039750;28;20044;-67
2023/07/06 02:05:57;;;;;;;13.00;7.35;;;12.50;99.90;;;;;;5054579;28;20107;-66
2023/07/06 02:08:25;;;;;;;11.38;7.55;;;12.60;99.90;;;;;;5037137;28;20099;-67
2023/07/06 02:10:52;;;;;;;12.68;6.82;;;12.50;99.90;;;;;;5037852;28;20381;-67
2023/07/06 02:13:18;;;;;;;11.18;7.15;;;12.60;99.90;;;;;;5056890;28;20109;-68
2023/07/06 02:15:45;;;;;;;11.68;7.53;;;12.70;99.90;;;;;;5074305;28;20073;-67
2023/07/06 02:18:12;;;;;;;11.10;7.20;;;12.70;99.90;;;;;;5057614;28;20051;-67
2023/07/06 02:20:39;;;;;;;12.20;7.53;;;12.70;99.90;;;;;;5057179;28;20059;-66
2023/07/06 02:23:08;;;;;;;10.98;7.13;;;12.70;99.90;;;;;;5072528;28;20415;-67
2023/07/06 02:25:34;;;;;;;10.65;7.28;;;12.70;99.90;;;;;;5037719;28;20090;-67
2023/07/06 02:28:00;;;;;;;9.27;5.93;;;12.80;99.90;;;;;;5053373;28;20048;-67
2023/07/06 02:30:28;;;;;;;11.35;7.38;;;12.70;99.90;;;;;;5054376;28;20049;-67
2023/07/06 02:32:55;;;;;;;10.52;7.43;;;12.80;99.90;;;;;;5037531;28;20064;-66
2023/07/06 02:35:23;;;;;;;14.73;7.20;;;12.70;99.90;;;;;;5049372;28;20044;-66
2023/07/06 02:37:49;;;;;;;14.07;7.35;;;12.80;99.90;;;;;;5091620;28;20092;-68
2023/07/06 02:40:17;;;;;;;11.65;7.40;;;12.80;99.90;;;;;;5074375;28;20052;-67
2023/07/06 02:42:44;;;;;;;9.00;7.07;;;12.80;99.90;;;;;;5073835;28;20055;-68
2023/07/06 02:45:10;;;;;;;11.13;6.72;;;12.80;99.90;;;;;;5073289;28;20063;-68
2023/07/06 02:47:41;;;;;;;11.48;7.32;;;12.80;99.90;;;;;;5073243;28;20180;-67
2023/07/06 02:50:11;;;;;;;12.30;7.60;;;12.90;99.90;;;;;;5057081;28;20044;-67
2023/07/06 02:52:38;;;;;;;11.98;7.45;;;12.80;99.90;;;;;;5091656;28;20460;-67
2023/07/06 02:55:04;;;;;;;13.07;7.15;;;12.90;99.90;;;;;;5057086;28;20306;-67
2023/07/06 02:57:31;;;;;;;11.05;7.13;;;12.80;99.90;;;;;;5056490;28;20472;-67
2023/07/06 02:59:58;;;;;;;10.82;7.22;;;12.90;99.90;;;;;;5057098;28;20051;-67
2023/07/06 03:02:24;;;;;;;13.50;7.72;;;12.80;99.90;;;;;;5073628;28;20048;-67
2023/07/06 03:04:53;;;;;;;11.30;7.78;;;12.80;99.90;;;;;;5073093;28;20083;-66
2023/07/06 03:07:19;;;;;;;10.02;7.10;;;12.90;99.90;;;;;;5072866;28;20044;-66
2023/07/06 03:09:46;;;;;;;8.82;6.22;;;12.90;99.90;;;;;;5073941;28;20375;-66
2023/07/06 03:12:14;;;;;;;12.82;7.57;;;12.90;99.90;;;;;;5073549;28;20048;-66
2023/07/06 03:14:41;;;;;;;12.98;6.97;;;12.90;99.90;;;;;;5073399;28;20384;-67
2023/07/06 03:17:07;;;;;;;10.55;7.70;;;12.90;99.90;;;;;;5091085;28;20110;-67
2023/07/06 03:19:34;;;;;;;13.30;7.68;;;12.90;99.90;;;;;;5073684;28;20047;-67
2023/07/06 03:22:01;;;;;;;13.00;7.05;;;12.90;99.90;;;;;;5091093;28;20075;-66
2023/07/06 03:24:27;;;;;;;12.10;7.13;;;12.90;99.90;;;;;;5073021;28;20052;-67
2023/07/06 03:26:54;;;;;;;12.32;7.18;;;13.00;99.90;;;;;;5072792;28;20042;-67
2023/07/06 03:29:21;;;;;;;12.75;7.35;;;13.00;99.90;;;;;;5073260;28;20044;-67
2023/07/06 03:31:48;;;;;;;12.32;7.40;;;13.00;99.90;;;;;;5073250;28;20058;-67
2023/07/06 03:34:15;;;;;;;14.15;7.00;;;13.00;99.90;;;;;;5056588;28;20052;-67
2023/07/06 03:36:41;;;;;;;12.05;7.60;;;13.00;99.90;;;;;;5072708;28;20048;-66
2023/07/06 03:39:11;;;;;;;13.55;7.38;;;13.10;99.90;;;;;;5074545;28;20109;-68
2023/07/06 03:41:38;;;;;;;13.23;6.75;;;13.20;99.90;;;;;;5060471;28;20063;-68
2023/07/06 03:44:06;;;;;;;11.02;6.63;;;13.10;99.90;;;;;;5060450;28;20142;-66
2023/07/06 03:46:33;;;;;;;13.38;7.68;;;13.10;99.90;;;;;;5076652;28;20048;-67
2023/07/06 03:49:05;;;;;;;10.30;6.55;;;13.20;99.90;;;;;;5077088;28;20047;-67
2023/07/06 03:51:31;;;;;;;12.35;6.43;;;13.20;99.90;;;;;;5076839;28;20451;-67
2023/07/06 03:53:59;;;;;;;11.27;7.25;;;13.30;99.90;;;;;;5076886;28;20054;-67
2023/07/06 03:56:28;;;;;;;10.77;6.80;;;13.20;99.90;;;;;;5059924;28;20048;-66
2023/07/06 03:58:56;;;;;;;11.05;6.80;;;13.20;99.90;;;;;;5076868;28;20109;-66
2023/07/06 04:01:27;;;;;;;10.68;6.68;;;13.30;99.90;;;;;;5060062;28;20048;-67
2023/07/06 04:03:55;;;;;;;14.23;6.57;;;13.30;99.90;;;;;;5076393;28;20058;-67
2023/07/06 04:06:27;;;;;;;9.32;6.72;;;13.30;99.90;;;;;;5060028;28;20338;-66
2023/07/06 04:08:56;;;;;;;13.60;6.20;;;13.20;99.90;;;;;;5076636;28;20058;-66
2023/07/06 04:11:22;;;;;;;12.93;6.13;;;13.20;99.90;;;;;;5076859;28;20048;-67
2023/07/06 04:13:49;;;;;;;13.68;7.55;;;13.20;99.90;;;;;;5094486;28;20048;-67
2023/07/06 04:16:17;;;;;;;12.98;6.53;;;13.20;99.90;;;;;;5094223;28;20426;-67
2023/07/06 04:18:46;;;;;;;12.27;6.88;;;13.30;99.90;;;;;;5094789;28;20101;-68
2023/07/06 04:21:19;;;;;;;9.43;6.85;;;13.20;99.90;;;;;;5076860;28;20052;-66
2023/07/06 04:23:49;;;;;;;13.70;7.45;;;13.30;99.90;;;;;;5056471;28;20102;-67
2023/07/06 04:26:16;;;;;;;11.57;7.57;;;13.30;99.90;;;;;;5056427;28;20102;-66
2023/07/06 04:28:43;;;;;;;14.63;7.05;;;13.30;99.90;;;;;;5056398;28;20048;-68
2023/07/06 04:31:14;;;;;;;10.70;6.32;;;13.30;99.90;;;;;;5039843;28;20462;-67
2023/07/06 04:33:41;;;;;;;10.30;6.03;;;13.30;99.90;;;;;;5061747;28;20380;-67
2023/07/06 04:36:09;;;;;;;12.82;6.43;;;13.40;99.90;;;;;;5075465;28;20384;-67
2023/07/06 04:38:35;;;;;;;10.45;6.38;;;13.40;99.90;;;;;;5059792;28;20144;-67
2023/07/06 04:41:02;;;;;;;13.27;7.25;;;13.50;99.90;;;;;;5076295;28;20047;-67
2023/07/06 04:43:29;;;;;;;11.32;6.93;;;13.60;99.90;;;;;;5075671;28;20053;-67
2023/07/06 04:45:56;;;;;;;11.82;7.43;;;13.60;99.90;;;;;;5059353;28;20067;-67
2023/07/06 04:48:24;;;;;;;11.13;7.07;;;13.70;99.90;;;;;;5058995;28;20453;-67
2023/07/06 04:50:54;;;;;;;11.45;6.72;;;13.80;99.90;;;;;;5074411;28;20044;-66
2023/07/06 04:53:21;;;;;;;15.98;7.38;;;13.90;99.90;;;;;;5042555;28;20098;-66
2023/07/06 04:55:48;;;;;;;11.98;7.53;;;13.90;99.90;;;;;;5075975;28;20109;-67
2023/07/06 04:58:14;;;;;;;11.50;7.00;;;14.10;99.90;;;;;;5059186;28;20052;-67
2023/07/06 05:00:41;;;;;;;11.80;7.13;;;14.80;99.90;;;;;;5076214;28;20078;-67
2023/07/06 05:03:08;;;;;;;13.20;7.75;;;15.70;99.90;;;;;;5075602;28;20055;-67
2023/07/06 05:05:42;;;;;;;13.48;7.10;;;16.50;99.90;;;;;;5042043;28;20044;-67
2023/07/06 05:08:15;;;;;;;11.50;8.13;;;17.30;99.90;;;;;;5075586;28;20113;-68
2023/07/06 05:10:47;;;;;;;15.15;8.23;;;18.00;99.90;;;;;;5072435;28;20055;-67
2023/07/06 05:13:14;;;;;;;11.95;6.82;;;18.60;99.90;;;;;;5082206;28;20051;-68
2023/07/06 05:16:13;;;;;;;12.68;7.30;;;19.00;99.90;;;;;;5066372;28;20421;-68
2023/07/06 05:18:39;;;;;;;10.13;6.60;;;19.60;99.90;;;;;;5073935;28;20051;-67
2023/07/06 05:21:06;;;;;;;12.18;6.47;;;19.90;99.90;;;;;;5058448;28;20468;-67
2023/07/06 05:23:32;;;;;;;12.15;6.40;;;20.20;99.90;;;;;;5045175;28;20366;-68
2023/07/06 05:26:02;;;;;;;13.00;7.20;;;19.90;99.90;;;;;;5061220;28;20109;-68
2023/07/06 05:28:31;;;;;;;11.98;7.13;;;19.30;99.90;;;;;;5038745;28;20036;-67
2023/07/06 05:30:59;;;;;;;11.48;6.72;;;19.30;99.90;;;;;;5038528;28;20057;-67
2023/07/06 05:33:25;;;;;;;11.63;6.45;;;19.10;99.90;;;;;;5040879;28;20040;-67
2023/07/06 05:35:51;;;;;;;12.73;6.82;;;19.30;99.90;;;;;;5074797;28;20051;-69
2023/07/06 05:38:18;;;;;;;11.60;6.28;;;19.70;99.90;;;;;;5074697;28;20063;-68
2023/07/06 05:40:44;;;;;;;10.15;6.70;;;20.20;99.90;;;;;;5075094;28;20131;-67
2023/07/06 05:43:10;;;;;;;10.60;6.82;;;20.20;99.90;;;;;;5074707;28;20130;-67
2023/07/06 05:45:37;;;;;;;11.43;6.53;;;20.50;99.90;;;;;;5055075;28;20060;-68
2023/07/06 05:48:05;;;;;;;13.85;7.32;;;20.90;99.90;;;;;;5059465;28;20044;-69
2023/07/06 05:50:39;;;;;;;11.27;6.57;;;21.20;99.90;;;;;;5067845;28;20111;-68
2023/07/06 05:53:06;;;;;;;13.00;6.38;;;21.30;99.90;;;;;;5073259;28;20052;-68
2023/07/06 05:55:38;;;;;;;10.15;6.20;;;21.70;99.90;;;;;;5074051;28;20044;-67
2023/07/06 05:58:06;;;;;;;8.68;6.70;;;21.30;99.90;;;;;;5074325;28;20114;-68
2023/07/06 06:00:36;;;;;;;10.25;5.45;;;21.30;99.90;;;;;;5073800;28;20404;-68
2023/07/06 06:03:03;;;;;;;11.40;6.63;;;20.80;99.90;;;;;;5057706;28;20044;-66
2023/07/06 06:05:29;;;;;;;13.80;6.60;;;20.50;99.90;;;;;;5080924;28;20460;-69
2023/07/06 06:07:56;;;;;;;13.45;6.80;;;19.90;99.90;;;;;;5063464;28;20178;-68
2023/07/06 06:10:22;;;;;;;11.07;6.60;;;19.70;99.90;;;;;;5039243;28;20295;-68
2023/07/06 06:12:50;;;;;;;11.30;7.35;;;19.40;99.90;;;;;;5054345;28;20471;-68
2023/07/06 06:15:17;;;;;;;13.35;6.78;;;19.10;99.90;;;;;;5055551;28;20070;-70
2023/07/06 06:17:44;;;;;;;16.15;7.15;;;19.20;99.90;;;;;;5057347;28;20044;-68
2023/07/06 06:20:10;;;;;;;11.20;6.68;;;19.50;99.90;;;;;;5056015;28;20074;-68
2023/07/06 06:22:37;;;;;;;11.77;7.45;;;20.00;99.90;;;;;;5057650;28;20063;-68
2023/07/06 06:25:05;;;;;;;11.85;6.38;;;20.50;99.90;;;;;;5057788;28;20056;-68
2023/07/06 06:27:32;;;;;;;9.23;6.63;;;20.80;99.90;;;;;;5057191;28;20056;-69
2023/07/06 06:29:58;;;;;;;15.32;6.90;;;21.00;99.90;;;;;;5056945;28;20062;-69
2023/07/06 06:32:25;;;;;;;11.95;6.50;;;21.10;99.90;;;;;;5074170;28;20109;-69
2023/07/06 06:34:59;;;;;;;10.50;6.82;;;21.00;99.90;;;;;;5056634;28;20064;-68
2023/07/06 06:37:27;;;;;;;12.68;7.07;;;20.90;99.90;;;;;;5069654;28;20055;-69
2023/07/06 06:39:53;;;;;;;11.48;6.15;;;20.90;99.90;;;;;;5057136;28;20048;-69
2023/07/06 06:42:20;;;;;;;13.90;7.18;;;21.10;99.90;;;;;;5057014;28;20055;-68
2023/07/06 06:44:46;;;;;;;13.52;6.10;;;21.90;99.90;;;;;;5048792;28;20725;-68
2023/07/06 06:47:12;;;;;;;9.75;6.10;;;22.20;99.90;;;;;;5063542;28;20048;-68
2023/07/06 06:49:39;;;;;;;11.57;7.32;;;22.60;99.90;;;;;;5055782;28;20467;-67
2023/07/06 06:52:06;;;;;;;11.52;7.05;;;22.90;99.90;;;;;;5047431;28;20044;-69
2023/07/06 06:54:33;;;;;;;10.90;6.38;;;23.20;99.90;;;;;;5066342;28;20468;-68
2023/07/06 06:57:00;;;;;;;11.32;6.47;;;23.50;99.90;;;;;;5057518;28;20059;-69
2023/07/06 06:59:27;;;;;;;12.93;6.00;;;23.60;99.90;;;;;;5073645;28;20093;-68
2023/07/06 07:01:54;;;;;;;8.40;5.85;;;23.70;99.90;;;;;;5057520;28;20056;-66
2023/07/06 07:04:20;;;;;;;11.52;6.60;;;23.00;99.90;;;;;;5053846;28;20064;-67
2023/07/06 07:06:46;;;;;;;10.07;6.05;;;22.50;99.90;;;;;;5060697;28;20074;-67
2023/07/06 07:09:13;;;;;;;12.60;6.20;;;21.80;99.90;;;;;;5057222;28;20043;-67
2023/07/06 07:11:39;;;;;;;14.05;6.68;;;21.40;99.90;;;;;;5057392;28;20044;-69
2023/07/06 07:14:07;;;;;;;12.23;6.20;;;21.40;99.90;;;;;;5073063;28;20067;-68
2023/07/06 07:16:34;;;;;;;10.43;5.97;;;21.40;99.90;;;;;;5057476;28;20044;-67
2023/07/06 07:19:04;;;;;;;11.10;6.03;;;21.40;99.90;;;;;;5057055;28;20468;-67
2023/07/06 07:21:30;;;;;;;12.40;6.00;;;21.30;99.90;;;;;;5056970;28;20427;-65
2023/07/06 07:24:02;;;;;;;10.20;6.30;;;21.40;99.90;;;;;;5072214;28;20074;-67
2023/07/06 07:26:29;;;;;;;11.57;5.82;;;21.30;99.90;;;;;;5091912;28;20044;-68
2023/07/06 07:28:57;;;;;;;11.27;5.72;;;21.00;99.90;;;;;;5056874;28;20113;-67
2023/07/06 07:31:31;;;;;;;13.32;6.07;;;21.00;99.90;;;;;;5064782;28;20052;-68
2023/07/06 07:33:57;;;;;;;9.82;6.65;;;20.70;99.90;;;;;;5049594;28;20048;-68
2023/07/06 07:36:24;;;;;;;11.27;6.25;;;20.40;99.90;;;;;;5061412;28;20052;-68
2023/07/06 07:38:53;;;;;;;11.65;6.35;;;20.30;99.90;;;;;;5053532;28;20346;-68
2023/07/06 07:41:19;;;;;;;9.45;6.28;;;20.30;99.90;;;;;;5048551;28;20361;-68
2023/07/06 07:43:48;;;;;;;10.85;6.13;;;20.40;99.90;;;;;;5057134;28;20110;-68
2023/07/06 07:46:16;;;;;;;11.35;6.30;;;20.60;99.90;;;;;;5074044;28;20044;-67
2023/07/06 07:48:49;;;;;;;11.00;6.07;;;20.90;99.90;;;;;;5073976;28;20059;-67
2023/07/06 07:51:21;;;;;;;11.18;5.93;;;21.10;99.90;;;;;;5057290;28;20408;-65
2023/07/06 07:53:47;;;;;;;9.20;6.00;;;21.30;99.90;;;;;;5073207;28;20377;-65
2023/07/06 07:56:15;;;;;;;11.35;6.38;;;21.50;99.90;;;;;;5073569;28;20051;-66
2023/07/06 07:58:44;;;;;;;14.23;5.85;;;21.10;99.90;;;;;;5057407;28;20048;-67
2023/07/06 08:01:13;;;;;;;14.60;6.22;;;21.00;99.90;;;;;;5073174;28;20054;-66
2023/07/06 08:03:39;;;;;;;10.70;6.47;;;21.00;99.90;;;;;;5073022;28;20048;-66
2023/07/06 08:06:08;;;;;;;8.05;5.40;;;21.00;99.90;;;;;;5073409;28;20075;-66
2023/07/06 08:08:36;;;;;;;9.15;4.88;;;20.80;99.90;;;;;;5057006;28;20445;-65
2023/07/06 08:11:06;;;;;;;12.35;5.60;;;20.80;99.90;;;;;;5056481;28;20048;-66
2023/07/06 08:13:50;;;;;;;9.15;4.97;;;20.60;99.90;;;;;;5056746;28;20044;-66
2023/07/06 08:16:19;;;;;;;8.55;4.97;;;21.00;99.90;;;;;;5057194;28;20431;-67
2023/07/06 08:18:48;;;;;;;11.10;4.93;;;21.00;99.90;;;;;;5056841;28;20060;-68
2023/07/06 08:21:15;;;;;;;10.45;4.88;;;21.00;99.90;;;;;;5056730;28;20052;-66
2023/07/06 08:23:48;;;;;;;10.63;4.80;;;20.90;99.90;;;;;;5056641;28;20048;-67
2023/07/06 08:26:15;;;;;;;11.23;5.78;;;20.80;99.90;;;;;;5076167;28;20105;-66
2023/07/06 08:28:42;;;;;;;9.00;5.07;;;20.80;99.90;;;;;;5073722;28;20051;-66
2023/07/06 08:31:13;;;;;;;9.88;4.80;;;20.80;99.90;;;;;;5060202;28;20054;-67
2023/07/06 08:33:40;;;;;;;9.98;5.13;;;21.00;99.90;;;;;;5076872;28;20040;-68
2023/07/06 08:36:07;;;;;;;6.97;4.82;;;21.10;99.90;;;;;;5094419;28;20078;-67
2023/07/06 08:38:36;;;;;;;8.38;5.00;;;21.10;99.90;;;;;;5077194;28;20044;-68
2023/07/06 08:41:25;;;;;;;8.95;4.95;;;20.90;99.90;;;;;;5076628;28;20055;-67
2023/07/06 08:43:53;;;;;;;9.48;4.63;;;20.80;99.90;;;;;;5041577;28;20404;-67
2023/07/06 08:46:20;;;;;;;8.57;4.43;;;21.00;99.90;;;;;;5056749;28;20089;-67
2023/07/06 08:48:46;;;;;;;15.40;6.60;;;21.00;99.90;;;;;;5056166;28;20049;-69
2023/07/06 08:51:24;;;;;;;9.30;5.38;;;21.20;99.90;;;;;;5074845;28;20056;-67
2023/07/06 08:54:00;;;;;;;12.63;5.18;;;21.50;99.90;;;;;;5076193;28;20054;-69
2023/07/06 08:56:36;;;;;;;7.90;4.45;;;21.60;99.90;;;;;;5076698;28;20048;-67
2023/07/06 08:59:07;;;;;;;8.68;4.68;;;21.30;99.90;;;;;;5076376;28;20062;-68
2023/07/06 09:01:34;;;;;;;;;;;21.10;99.90;;;;;;5094983;28;20048;-67
2023/07/06 09:04:12;;;;;;;8.93;4.30;;;20.90;99.90;;;;;;5094007;28;19919;-69
2023/07/06 09:06:40;;;;;;;;;;;20.70;99.90;;;;;;5076924;28;20052;-67
2023/07/06 09:09:08;;;;;;;8.57;3.70;;;20.70;99.90;;;;;;5092347;28;20500;-67
2023/07/06 09:11:36;;;;;;;6.95;3.97;;;20.70;99.90;;;;;;5049725;28;20048;-68
2023/07/06 09:14:07;;;;;;;7.63;4.05;;;20.80;99.90;;;;;;5085470;28;20044;-67
2023/07/06 09:16:35;;;;;;;9.07;3.78;;;20.90;99.90;;;;;;5065104;28;20037;-68
2023/07/06 09:19:08;;;;;;;8.48;3.85;;;21.10;99.90;;;;;;5065899;28;20431;-67
2023/07/06 09:21:35;;;;;;;7.93;4.10;;;21.40;99.90;;;;;;5064801;28;20388;-67
2023/07/06 09:24:01;;;;;;;8.35;4.60;;;21.40;99.90;;;;;;5063212;28;20051;-67
2023/07/06 09:26:33;;;;;;;7.28;3.83;;;21.00;99.90;;;;;;5093788;28;20055;-67
2023/07/06 09:29:24;;;;;;;8.18;3.85;;;21.20;99.90;;;;;;5093123;28;20048;-67
2023/07/06 09:32:10;;;;;;;6.40;3.58;;;21.10;99.90;;;;;;5076001;28;20040;-68
2023/07/06 09:34:45;;;;;;;5.30;3.03;;;21.00;99.90;;;;;;5075292;28;20499;-68
2023/07/06 09:37:13;;;;;;;5.90;3.53;;;21.00;99.90;;;;;;5058259;28;20040;-68
2023/07/06 09:39:40;;;;;;;7.47;3.58;;;20.90;99.90;;;;;;5075093;28;20048;-68
2023/07/06 09:42:14;;;;;;;7.20;3.38;;;21.10;99.90;;;;;;5075520;28;20071;-69
2023/07/06 09:44:41;;;;;;;7.32;3.40;;;21.20;99.90;;;;;;5075651;28;20070;-67
2023/07/06 09:47:12;;;;;;;8.00;3.78;;;21.20;99.90;;;;;;5093673;28;20106;-68
2023/07/06 09:49:48;;;;;;;7.60;3.30;;;21.10;99.90;;;;;;5092988;28;20040;-67
2023/07/06 09:52:17;;;;;;;5.78;3.67;;;20.90;99.90;;;;;;5075481;28;20048;-68
2023/07/06 09:55:14;;;;;;;6.07;3.10;;;20.70;99.90;;;;;;5055502;28;20055;-68
2023/07/06 09:57:44;;;;;;;6.97;3.75;;;20.80;99.90;;;;;;5065985;28;20405;-67
2023/07/06 10:00:17;;;;;;;8.35;3.53;;;21.00;99.90;;;;;;5058346;28;20518;-67
2023/07/06 10:03:00;;;;;;;6.70;3.30;;;21.10;99.90;;;;;;5058574;28;20048;-67
2023/07/06 10:05:44;;;;;;;9.15;3.20;;;21.00;99.90;;;;;;5057986;28;20503;-67
2023/07/06 10:08:17;;;;;;;9.70;4.10;;;20.90;99.90;;;;;;5058422;28;20066;-67
2023/07/06 10:11:06;;;;;;;9.07;3.40;;;20.60;99.90;;;;;;5075388;28;20365;-67
2023/07/06 10:13:51;;;;;;;7.38;3.45;;;20.60;99.90;;;;;;5083968;28;20036;-67
2023/07/06 10:16:33;;;;;;;7.15;3.53;;;20.50;99.90;;;;;;5048034;28;20040;-68
2023/07/06 10:19:12;;;;;;;6.90;3.38;;;20.60;99.90;;;;;;5068183;28;20044;-68
2023/07/06 10:21:56;;;;;;;6.18;3.30;;;20.90;99.90;;;;;;5047301;28;20057;-67
2023/07/06 10:25:22;;;;;;;7.10;3.30;;;21.10;99.90;;;;;;5064449;28;20063;-68
2023/07/06 10:27:57;;;;;;;7.03;2.80;;;21.40;99.90;;;;;;5037637;28;20059;-67
2023/07/06 10:30:32;;;;;;;5.40;3.15;;;21.70;99.90;;;;;;5070687;28;20052;-66
2023/07/06 10:33:06;;;;;;;6.57;2.90;;;21.50;99.90;;;;;;5091062;28;20461;-67
2023/07/06 10:35:45;;;;;;;6.78;3.10;;;21.60;99.90;;;;;;5089484;28;20051;-68
2023/07/06 10:38:12;;;;;;;4.60;2.45;;;21.70;99.90;;;;;;5091176;28;20044;-67
2023/07/06 10:40:38;;;;;;;6.05;3.30;;;21.70;99.90;;;;;;5090306;28;20056;-67
2023/07/06 10:43:14;;;;;;;8.57;3.42;;;21.70;99.90;;;;;;5091890;28;20113;-67
2023/07/06 10:45:56;;;;;;;6.05;2.40;;;21.50;99.90;;;;;;5073691;28;20415;-68
2023/07/06 10:48:32;;;;;;;4.90;2.63;;;21.80;99.90;;;;;;5056814;28;20058;-68
2023/07/06 10:51:06;;;;;;;4.97;2.20;;;21.90;99.90;;;;;;5051225;28;20052;-67
2023/07/06 10:53:41;;;;;;;5.57;2.33;;;22.20;99.90;;;;;;5051585;28;20147;-68
2023/07/06 10:56:17;;;;;;;5.50;2.60;;;22.30;99.90;;;;;;5035451;28;20571;-68
2023/07/06 10:58:59;;;;;;;7.80;2.65;;;22.20;99.90;;;;;;5051847;28;20064;-68
2023/07/06 11:01:37;;;;;;;7.43;2.90;;;22.10;99.90;;;;;;5052066;28;20075;-67
2023/07/06 11:04:35;;;;;;;6.22;2.22;;;22.10;99.90;;;;;;5040536;28;20039;-67
2023/07/06 11:07:04;;;;;;;7.30;2.83;;;22.10;99.90;;;;;;5071783;28;20035;-67
2023/07/06 11:10:07;;;;;;;8.45;2.90;;;22.10;99.90;;;;;;5071108;28;20114;-67
2023/07/06 11:12:57;;;;;;;5.38;3.03;;;22.10;99.90;;;;;;5071910;28;20055;-67
2023/07/06 11:15:44;;;;;;;7.80;3.05;;;22.30;99.90;;;;;;5052233;28;20467;-67
2023/07/06 11:18:32;;;;;;;6.43;3.30;;;22.40;99.90;;;;;;5029720;28;20052;-67
2023/07/06 11:21:08;;;;;;;3.88;2.47;;;22.60;99.90;;;;;;5053409;28;20049;-66
2023/07/06 11:23:47;;;;;;;4.30;2.83;;;22.50;99.90;;;;;;5072511;28;20052;-67
2023/07/06 11:26:28;;;;;;;5.80;2.50;;;22.50;99.90;;;;;;5091465;28;20464;-66
2023/07/06 11:28:55;;;;;;;4.97;2.92;;;22.50;99.90;;;;;;5072679;28;20471;-68
2023/07/06 11:31:44;;;;;;;6.28;3.00;;;22.70;99.90;;;;;;5077808;28;20048;-68
2023/07/06 11:34:41;;;;;;;6.30;3.33;;;22.60;99.90;;;;;;5076858;28;20056;-67
2023/07/06 11:37:18;;;;;;;7.07;4.22;;;22.70;99.90;;;;;;5087101;28;20102;-66
2023/07/06 11:39:51;;;;;;;;;;;22.70;99.90;;;;;;5078875;28;20048;-67
2023/07/06 11:42:52;;;;;;;10.13;4.28;;;22.60;99.60;;;;;;5069827;28;20381;-67
2023/07/06 11:45:47;;;;;;;6.70;3.80;;;22.90;99.90;;;;;;5058960;28;20127;-68
2023/07/06 11:48:28;;;;;;;8.00;4.07;;;22.80;99.90;;;;;;5049476;28;20047;-67
2023/07/06 11:50:54;;;;;;;11.40;3.60;;;22.60;99.90;;;;;;5070209;28;20040;-68
2023/07/06 11:53:44;;;;;;;7.05;3.75;;;22.50;99.90;;;;;;5073174;28;20368;-67
2023/07/06 11:59:36;;;;;;;5.85;3.80;;;22.10;99.90;;;;;;5016642;28;20060;-67
2023/07/06 12:02:17;;;;;;;5.25;3.78;;;21.80;99.90;;;;;;5040558;28;20056;-67
2023/07/06 12:04:49;;;;;;;7.57;3.47;;;21.40;99.90;;;;;;5067319;28;20059;-67
2023/07/06 12:07:30;;;;;;;6.22;3.70;;;21.30;99.90;;;;;;5072587;28;20054;-67
2023/07/06 12:10:04;;;;;;;5.95;3.45;;;21.10;99.90;;;;;;5095008;28;20047;-68
2023/07/06 12:12:32;;;;;;;9.80;3.78;;;21.00;99.90;;;;;;5060711;28;20055;-68
2023/07/06 12:15:00;;;;;;;7.43;3.65;;;20.90;99.90;;;;;;5077383;28;20078;-67
2023/07/06 12:17:31;;;;;;;9.30;4.05;;;21.00;99.90;;;;;;5077193;28;20052;-67
2023/07/06 12:19:58;;;;;;;5.63;3.55;;;21.00;99.90;;;;;;5077115;28;20416;-66
2023/07/06 12:22:25;;;;;;;7.40;2.80;;;21.00;99.90;;;;;;5095131;28;20376;-66
2023/07/06 12:24:53;;;;;;;5.80;2.95;;;21.00;99.90;;;;;;5076742;28;20048;-68
2023/07/06 12:27:19;;;;;;;5.15;3.03;;;21.10;99.90;;;;;;5089003;28;20052;-67
2023/07/06 12:29:46;;;;;;;10.63;4.20;;;21.20;99.90;;;;;;5074658;28;20055;-67
2023/07/06 12:32:17;;;;;;;5.78;3.10;;;21.10;99.90;;;;;;5075070;28;20055;-68
2023/07/06 12:34:46;;;;;;;12.57;6.93;;;21.30;99.90;;;;;;5073491;28;20055;-66
2023/07/06 12:37:14;;;;;;;22.55;5.88;;;21.30;99.90;;;;;;5095211;28;20118;-67
2023/07/06 12:39:43;;;;;;;9.55;4.38;;;21.40;99.90;;;;;;5076833;28;20074;-66
2023/07/06 12:42:11;;;;;;;9.50;3.90;;;21.60;99.90;;;;;;5076566;28;20494;-67
2023/07/06 12:44:41;;;;;;;8.98;4.00;;;21.60;99.90;;;;;;5076316;28;20044;-68
2023/07/06 12:47:43;;;;;;;8.43;4.07;;;21.50;99.90;;;;;;5056987;28;20063;-69
2023/07/06 12:50:26;;;;;;;9.18;3.83;;;21.50;99.90;;;;;;5039579;28;20369;-67
2023/07/06 12:53:05;;;;;;;7.80;3.75;;;21.40;99.90;;;;;;5040215;28;20182;-66
2023/07/06 12:55:32;;;;;;;7.57;3.58;;;21.30;99.90;;;;;;5072710;28;20468;-68
2023/07/06 12:58:34;;;;;;;5.90;3.17;;;21.30;99.90;;;;;;5076594;28;20464;-67
2023/07/06 13:01:09;;;;;;;5.57;3.10;;;21.30;99.90;;;;;;5094040;28;20044;-68
2023/07/06 13:03:56;;;;;;;5.45;2.90;;;21.30;99.90;;;;;;5070380;28;20534;-67
2023/07/06 13:06:25;;;;;;;6.43;3.97;;;21.40;99.90;;;;;;5076764;28;20520;-67
2023/07/06 13:09:01;;;;;;;6.50;3.53;;;21.60;99.90;;;;;;5056222;28;20067;-67